createdAt,value
2022-08-09T00:00:23.111Z,21.30
2022-08-09T00:02:52.155Z,21.10
2022-08-09T00:06:17.445Z,21.10
2022-08-09T00:08:11.455Z,20.80
2022-08-09T00:10:42.881Z,20.70
2022-08-09T00:13:17.633Z,20.70
2022-08-09T00:15:59.041Z,20.70
2022-08-09T00:18:30.254Z,20.60
2022-08-09T00:20:59.551Z,20.60
2022-08-09T00:23:55.643Z,20.50
2022-08-09T00:26:16.898Z,20.40
2022-08-09T00:28:52.389Z,20.40
2022-08-09T00:31:58.381Z,20.40
2022-08-09T00:34:32.686Z,20.50
2022-08-09T00:37:02.094Z,20.40
2022-08-09T00:40:14.160Z,20.50
2022-08-09T00:44:15.996Z,20.50
2022-08-09T00:45:15.969Z,20.60
2022-08-09T00:47:45.472Z,20.70
2022-08-09T00:50:14.479Z,20.60
2022-08-09T00:52:43.947Z,20.70
2022-08-09T00:55:32.880Z,20.60
2022-08-09T00:58:01.941Z,20.50
2022-08-09T01:00:35.098Z,20.20
2022-08-09T01:03:14.640Z,20.40
2022-08-09T01:05:53.878Z,20.30
2022-08-09T01:08:34.845Z,20.30
2022-08-09T01:11:17.395Z,20.30
2022-08-09T01:13:59.823Z,20.10
2022-08-09T01:16:36.040Z,20.20
2022-08-09T01:19:16.989Z,20.20
2022-08-09T01:22:16.660Z,20.10
2022-08-09T01:24:56.672Z,20.00
2022-08-09T01:27:29.249Z,20.00
2022-08-09T01:30:01.188Z,20.10
2022-08-09T01:32:34.259Z,20.00
2022-08-09T01:35:28.840Z,20.00
2022-08-09T01:38:08.478Z,20.10
2022-08-09T01:40:43.570Z,20.00
2022-08-09T01:43:14.469Z,19.90
2022-08-09T01:45:46.188Z,19.90
2022-08-09T01:48:17.429Z,19.80
2022-08-09T01:50:49.208Z,19.90
2022-08-09T01:53:23.951Z,20.00
2022-08-09T01:55:58.448Z,19.90
2022-08-09T01:58:31.041Z,20.00
2022-08-09T02:01:00.881Z,20.00
2022-08-09T02:03:32.363Z,20.00
2022-08-09T02:06:06.648Z,19.90
2022-08-09T02:08:57.976Z,19.90
2022-08-09T02:11:42.920Z,19.90
2022-08-09T02:14:25.605Z,20.00
2022-08-09T02:16:59.873Z,20.00
2022-08-09T02:19:44.088Z,20.00
2022-08-09T02:22:31.833Z,20.00
2022-08-09T02:25:06.774Z,19.90
2022-08-09T02:27:58.276Z,19.90
2022-08-09T02:30:29.998Z,19.80
2022-08-09T02:33:01.273Z,19.70
2022-08-09T02:36:02.826Z,19.70
2022-08-09T02:38:28.976Z,19.70
2022-08-09T02:41:04.369Z,19.60
2022-08-09T02:43:53.553Z,19.60
2022-08-09T02:46:27.500Z,19.60
2022-08-09T02:49:00.139Z,19.50
2022-08-09T02:51:37.234Z,19.40
2022-08-09T02:54:10.017Z,19.30
2022-08-09T02:56:39.073Z,19.20
2022-08-09T02:59:09.048Z,19.10
2022-08-09T03:01:42.557Z,19.10
2022-08-09T03:04:19.379Z,19.10
2022-08-09T03:06:49.258Z,19.10
2022-08-09T03:09:21.346Z,19.00
2022-08-09T03:12:05.341Z,19.00
2022-08-09T03:14:36.772Z,19.00
2022-08-09T03:17:06.656Z,18.90
2022-08-09T03:19:59.000Z,18.90
2022-08-09T03:22:25.420Z,18.60
2022-08-09T03:25:06.749Z,18.60
2022-08-09T03:27:50.235Z,18.60
2022-08-09T03:30:29.217Z,18.60
2022-08-09T03:33:17.456Z,18.60
2022-08-09T03:36:13.570Z,18.50
2022-08-09T03:38:42.005Z,18.70
2022-08-09T03:41:15.059Z,18.60
2022-08-09T03:43:51.729Z,18.50
2022-08-09T03:46:33.905Z,18.50
2022-08-09T03:49:08.033Z,18.50
2022-08-09T03:51:57.588Z,18.50
2022-08-09T03:54:31.167Z,18.60
2022-08-09T03:57:18.369Z,18.60
2022-08-09T03:59:54.552Z,18.60
2022-08-09T04:02:26.840Z,18.60
2022-08-09T04:04:58.687Z,18.50
2022-08-09T04:07:47.083Z,18.40
2022-08-09T04:10:20.383Z,18.40
2022-08-09T04:12:51.081Z,18.30
2022-08-09T04:15:52.326Z,18.30
2022-08-09T04:18:09.446Z,18.30
2022-08-09T04:20:46.743Z,18.30
2022-08-09T04:23:16.906Z,18.30
2022-08-09T04:25:52.282Z,18.30
2022-08-09T04:28:33.916Z,18.30
2022-08-09T04:31:09.510Z,18.30
2022-08-09T04:33:51.847Z,18.30
2022-08-09T04:36:24.835Z,18.40
2022-08-09T04:38:53.279Z,18.40
2022-08-09T04:41:23.862Z,18.40
2022-08-09T04:44:05.961Z,18.40
2022-08-09T04:46:58.862Z,18.40
2022-08-09T04:49:40.309Z,18.40
2022-08-09T04:52:27.499Z,18.40
2022-08-09T04:54:56.528Z,18.40
2022-08-09T04:57:25.338Z,18.50
2022-08-09T04:59:55.186Z,18.60
2022-08-09T05:02:23.969Z,18.60
2022-08-09T05:04:56.193Z,18.70
2022-08-09T05:07:27.708Z,18.90
2022-08-09T05:09:57.739Z,18.90
2022-08-09T05:12:29.847Z,18.90
2022-08-09T05:14:59.102Z,18.90
2022-08-09T05:18:38.429Z,19.00
2022-08-09T05:20:15.086Z,19.10
2022-08-09T05:23:53.574Z,19.20
2022-08-09T05:25:32.784Z,19.20
2022-08-09T05:28:00.951Z,19.20
2022-08-09T05:30:31.241Z,19.20
2022-08-09T05:33:00.658Z,19.30
2022-08-09T05:35:29.962Z,19.30
2022-08-09T05:38:01.427Z,19.40
2022-08-09T05:40:29.678Z,19.40
2022-08-09T05:42:57.873Z,19.40
2022-08-09T05:45:26.194Z,19.50
2022-08-09T05:48:14.103Z,19.60
2022-08-09T05:50:51.346Z,19.70
2022-08-09T05:53:37.216Z,19.80
2022-08-09T05:56:22.247Z,19.80
2022-08-09T05:58:58.532Z,20.00
2022-08-09T06:01:33.953Z,20.00
2022-08-09T06:04:12.199Z,20.00
2022-08-09T06:06:45.187Z,20.10
2022-08-09T06:09:23.303Z,20.20
2022-08-09T06:12:08.312Z,20.20
2022-08-09T06:14:37.187Z,20.30
2022-08-09T06:17:09.890Z,20.40
2022-08-09T06:19:38.945Z,20.40
2022-08-09T06:22:15.357Z,20.50
2022-08-09T06:24:45.122Z,20.60
2022-08-09T06:27:15.642Z,20.70
2022-08-09T06:29:48.271Z,20.80
2022-08-09T06:32:59.409Z,20.90
2022-08-09T06:35:15.364Z,21.00
2022-08-09T06:37:52.924Z,21.00
2022-08-09T06:40:33.437Z,21.10
2022-08-09T06:43:02.140Z,21.10
2022-08-09T06:46:05.576Z,21.20
2022-08-09T06:48:30.647Z,21.40
2022-08-09T06:51:00.178Z,21.40
2022-08-09T06:53:37.956Z,21.50
2022-08-09T06:56:09.724Z,21.80
2022-08-09T07:00:46.415Z,22.00
2022-08-09T07:01:35.746Z,22.00
2022-08-09T07:04:20.081Z,22.10
2022-08-09T07:06:48.419Z,22.20
2022-08-09T07:09:57.310Z,22.40
2022-08-09T07:12:13.744Z,22.50
2022-08-09T07:14:50.727Z,22.50
2022-08-09T07:17:19.786Z,22.60
2022-08-09T07:19:50.885Z,22.60
2022-08-09T07:22:34.357Z,22.70
2022-08-09T07:25:05.062Z,22.60
2022-08-09T07:27:42.979Z,22.70
2022-08-09T07:30:25.122Z,22.80
2022-08-09T07:32:54.759Z,22.80
2022-08-09T07:35:23.190Z,22.90
2022-08-09T07:37:54.040Z,23.00
2022-08-09T07:40:37.347Z,23.00
2022-08-09T07:43:17.737Z,23.10
2022-08-09T07:45:45.815Z,23.00
2022-08-09T07:48:25.888Z,23.20
2022-08-09T07:51:10.116Z,23.20
2022-08-09T07:54:06.829Z,23.30
2022-08-09T07:56:44.961Z,23.30
2022-08-09T07:59:25.393Z,23.30
2022-08-09T08:02:03.186Z,23.40
2022-08-09T08:04:33.380Z,23.40
2022-08-09T08:07:15.551Z,23.40
2022-08-09T08:09:55.193Z,23.40
2022-08-09T08:12:36.913Z,23.50
2022-08-09T08:15:07.892Z,23.60
2022-08-09T08:17:53.743Z,23.60
2022-08-09T08:20:30.214Z,23.80
2022-08-09T08:23:06.363Z,23.90
2022-08-09T08:25:49.870Z,23.80
2022-08-09T08:28:25.585Z,24.00
2022-08-09T08:31:10.611Z,24.10
2022-08-09T08:33:52.153Z,24.10
2022-08-09T08:36:29.763Z,24.00
2022-08-09T08:38:59.639Z,23.90
2022-08-09T08:41:50.328Z,23.80
2022-08-09T08:44:22.995Z,24.00
2022-08-09T08:47:02.406Z,24.00
2022-08-09T08:49:46.489Z,24.20
2022-08-09T08:52:52.683Z,24.30
2022-08-09T08:55:05.715Z,24.30
2022-08-09T08:57:35.229Z,24.30
2022-08-09T09:00:07.971Z,24.30
2022-08-09T09:02:50.091Z,24.30
2022-08-09T09:05:57.482Z,24.60
2022-08-09T09:08:29.951Z,24.50
2022-08-09T09:11:03.234Z,24.50
2022-08-09T09:13:41.759Z,24.60
2022-08-09T09:16:29.705Z,24.60
2022-08-09T09:22:04.190Z,25.00
2022-08-09T09:24:35.024Z,24.60
2022-08-09T09:27:07.220Z,24.80
2022-08-09T09:30:14.312Z,25.00
2022-08-09T09:32:35.084Z,25.00
2022-08-09T09:35:10.360Z,25.20
2022-08-09T09:37:41.533Z,25.10
2022-08-09T09:40:12.317Z,25.20
2022-08-09T09:42:42.900Z,25.20
2022-08-09T09:45:26.493Z,25.50
2022-08-09T09:47:58.681Z,25.70
2022-08-09T09:50:50.793Z,25.50
2022-08-09T09:53:21.500Z,25.50
2022-08-09T09:56:05.236Z,25.90
2022-08-09T09:58:46.537Z,25.90
2022-08-09T10:01:37.276Z,25.60
2022-08-09T10:04:15.953Z,25.70
2022-08-09T10:06:54.255Z,25.70
2022-08-09T10:09:24.141Z,25.90
2022-08-09T10:12:26.942Z,25.90
2022-08-09T10:14:53.239Z,26.00
2022-08-09T10:17:55.949Z,25.90
2022-08-09T10:20:33.095Z,26.10
2022-08-09T10:23:21.881Z,26.00
2022-08-09T10:26:08.021Z,26.00
2022-08-09T10:28:41.682Z,26.50
2022-08-09T10:34:09.235Z,26.70
2022-08-09T10:36:50.120Z,26.50
2022-08-09T10:39:23.422Z,26.70
2022-08-09T10:41:57.132Z,27.00
2022-08-09T10:44:30.425Z,27.00
2022-08-09T10:48:12.836Z,26.80
2022-08-09T10:50:26.957Z,26.80
2022-08-09T10:53:13.246Z,27.10
2022-08-09T10:55:57.826Z,27.20
2022-08-09T10:58:33.661Z,27.10
2022-08-09T11:03:03.351Z,27.20
2022-08-09T11:04:31.252Z,27.10
2022-08-09T11:07:56.679Z,27.30
2022-08-09T11:10:47.003Z,27.80
2022-08-09T11:13:54.158Z,28.00
2022-08-09T11:16:37.018Z,28.10
2022-08-09T11:19:10.401Z,28.20
2022-08-09T11:22:10.836Z,28.10
2022-08-09T11:25:09.834Z,27.90
2022-08-09T11:28:08.061Z,28.10
2022-08-09T11:30:38.033Z,28.40
2022-08-09T11:33:13.030Z,28.40
2022-08-09T11:35:49.854Z,28.60
2022-08-09T11:38:21.967Z,28.40
2022-08-09T11:40:52.841Z,28.50
2022-08-09T11:43:43.760Z,28.60
2022-08-09T11:46:18.468Z,28.50
2022-08-09T11:49:17.110Z,28.50
2022-08-09T11:53:03.552Z,28.80
2022-08-09T11:55:39.872Z,29.00
2022-08-09T11:58:48.125Z,29.20
2022-08-09T12:02:00.846Z,28.90
2022-08-09T12:04:23.670Z,29.10
2022-08-09T12:07:01.044Z,29.30
2022-08-09T12:09:33.644Z,29.50
2022-08-09T12:12:06.051Z,29.60
2022-08-09T12:15:07.323Z,29.60
2022-08-09T12:17:42.311Z,29.70
2022-08-09T12:20:21.938Z,29.60
2022-08-09T12:22:55.631Z,29.70
2022-08-09T12:25:37.998Z,30.00
2022-08-09T12:28:58.461Z,29.40
2022-08-09T12:31:02.977Z,29.80
2022-08-09T12:33:59.424Z,30.20
2022-08-09T12:36:51.700Z,30.50
2022-08-09T12:39:28.334Z,29.80
2022-08-09T12:42:09.191Z,29.80
2022-08-09T12:44:38.862Z,30.30
2022-08-09T12:47:11.441Z,30.30
2022-08-09T12:49:52.920Z,30.50
2022-08-09T12:52:21.706Z,30.20
2022-08-09T12:56:15.113Z,30.00
2022-08-09T12:57:59.786Z,30.50
2022-08-09T13:00:32.547Z,30.30
2022-08-09T13:03:03.488Z,30.50
2022-08-09T13:05:50.730Z,30.50
2022-08-09T13:08:39.718Z,30.80
2022-08-09T13:11:23.401Z,30.90
2022-08-09T13:14:40.893Z,31.30
2022-08-09T13:17:01.096Z,31.20
2022-08-09T13:20:10.277Z,31.40
2022-08-09T13:22:35.320Z,30.90
2022-08-09T13:25:07.993Z,30.30
2022-08-09T13:27:54.977Z,30.30
2022-08-09T13:30:50.841Z,30.40
2022-08-09T13:33:23.941Z,31.00
2022-08-09T13:36:39.553Z,30.60
2022-08-09T13:38:57.854Z,30.40
2022-08-09T13:41:57.551Z,30.60
2022-08-09T13:44:17.759Z,31.10
2022-08-09T13:47:26.962Z,31.00
2022-08-09T13:49:56.053Z,31.60
2022-08-09T13:52:25.342Z,31.60
2022-08-09T13:55:00.630Z,31.40
2022-08-09T13:57:35.546Z,31.20
2022-08-09T14:00:10.376Z,31.40
2022-08-09T14:02:42.862Z,31.20
2022-08-09T14:05:58.862Z,31.50
2022-08-09T14:08:17.859Z,31.40
2022-08-09T14:10:53.111Z,31.30
2022-08-09T14:14:16.511Z,31.20
2022-08-09T14:16:15.464Z,31.40
2022-08-09T14:18:49.700Z,31.80
2022-08-09T14:21:21.026Z,32.00
2022-08-09T14:23:54.576Z,31.80
2022-08-09T14:26:30.450Z,32.10
2022-08-09T14:29:07.783Z,32.70
2022-08-09T14:31:53.834Z,31.60
2022-08-09T14:34:27.479Z,32.10
2022-08-09T14:37:06.462Z,32.10
2022-08-09T14:39:45.795Z,32.10
2022-08-09T14:42:31.341Z,31.90
2022-08-09T14:45:01.543Z,31.70
2022-08-09T14:47:58.198Z,31.80
2022-08-09T14:50:30.609Z,31.70
2022-08-09T14:52:59.841Z,31.60
2022-08-09T14:55:29.130Z,31.90
2022-08-09T14:58:06.028Z,32.00
2022-08-09T15:00:36.709Z,32.30
2022-08-09T15:03:10.627Z,32.30
2022-08-09T15:05:39.677Z,32.00
2022-08-09T15:08:18.879Z,32.20
2022-08-09T15:11:00.329Z,32.50
2022-08-09T15:13:47.880Z,32.70
2022-08-09T15:16:19.705Z,32.30
2022-08-09T15:18:49.827Z,32.50
2022-08-09T15:22:01.843Z,32.10
2022-08-09T15:24:17.555Z,32.00
2022-08-09T15:26:48.885Z,32.30
2022-08-09T15:30:48.627Z,32.30
2022-08-09T15:32:28.672Z,31.70
2022-08-09T15:35:00.443Z,31.30
2022-08-09T15:37:57.233Z,30.60
2022-08-09T15:40:31.952Z,30.60
2022-08-09T15:43:02.462Z,30.60
2022-08-09T15:46:07.311Z,31.20
2022-08-09T15:48:28.775Z,31.80
2022-08-09T15:50:59.785Z,31.70
2022-08-09T15:54:03.801Z,32.30
2022-08-09T15:56:21.585Z,31.90
2022-08-09T15:58:56.901Z,31.80
2022-08-09T16:01:26.362Z,31.90
2022-08-09T16:03:59.232Z,31.80
2022-08-09T16:06:35.424Z,31.70
2022-08-09T16:09:05.969Z,31.50
2022-08-09T16:11:34.303Z,31.70
2022-08-09T16:14:07.101Z,31.40
2022-08-09T16:16:38.076Z,31.20
2022-08-09T16:19:07.766Z,30.90
2022-08-09T16:21:36.060Z,30.80
2022-08-09T16:24:04.808Z,31.20
2022-08-09T16:26:36.261Z,31.70
2022-08-09T16:29:11.489Z,31.70
2022-08-09T16:32:19.479Z,31.60
2022-08-09T16:34:56.791Z,31.80
2022-08-09T16:37:21.565Z,31.80
2022-08-09T16:40:09.590Z,32.10
2022-08-09T16:42:38.294Z,31.80
2022-08-09T16:45:07.992Z,31.90
2022-08-09T16:48:40.518Z,32.00
2022-08-09T16:50:33.941Z,32.30
2022-08-09T16:53:02.961Z,32.10
2022-08-09T16:56:00.171Z,32.30
2022-08-09T16:58:23.529Z,31.80
2022-08-09T17:00:59.563Z,31.60
2022-08-09T17:03:56.353Z,31.20
2022-08-09T17:07:03.983Z,31.40
2022-08-09T17:09:44.048Z,32.20
2022-08-09T17:12:26.244Z,32.10
2022-08-09T17:15:31.148Z,32.60
2022-08-09T17:18:10.733Z,33.30
2022-08-09T17:20:48.017Z,33.70
2022-08-09T17:23:20.431Z,33.50
2022-08-09T17:25:53.034Z,33.30
2022-08-09T17:28:21.487Z,33.70
2022-08-09T17:30:51.511Z,34.00
2022-08-09T17:33:22.221Z,33.90
2022-08-09T17:35:52.546Z,33.50
2022-08-09T17:38:30.690Z,33.10
2022-08-09T17:41:00.857Z,32.90
2022-08-09T17:43:34.139Z,32.90
2022-08-09T17:46:07.535Z,32.90
2022-08-09T17:48:38.993Z,32.30
2022-08-09T17:51:18.592Z,32.20
2022-08-09T17:53:52.175Z,32.30
2022-08-09T17:56:27.620Z,32.50
2022-08-09T17:58:58.146Z,31.60
2022-08-09T18:01:40.748Z,30.10
2022-08-09T18:04:16.881Z,29.50
2022-08-09T18:06:49.708Z,29.00
2022-08-09T18:09:25.232Z,28.70
2022-08-09T18:12:17.940Z,28.80
2022-08-09T18:14:58.498Z,28.70
2022-08-09T18:18:02.425Z,28.60
2022-08-09T18:20:59.520Z,28.30
2022-08-09T18:23:07.601Z,28.20
2022-08-09T18:25:50.031Z,28.10
2022-08-09T18:30:34.531Z,28.10
2022-08-09T18:31:10.225Z,27.90
2022-08-09T18:33:40.206Z,27.60
2022-08-09T18:36:14.340Z,27.60
2022-08-09T18:39:00.989Z,27.70
2022-08-09T18:41:34.952Z,27.70
2022-08-09T18:44:13.048Z,27.30
2022-08-09T18:46:49.544Z,27.20
2022-08-09T18:49:32.189Z,27.10
2022-08-09T18:52:10.228Z,27.00
2022-08-09T18:54:42.023Z,26.80
2022-08-09T18:57:18.133Z,26.90
2022-08-09T18:59:48.898Z,26.80
2022-08-09T19:02:20.588Z,26.60
2022-08-09T19:05:04.076Z,26.40
2022-08-09T19:07:40.848Z,26.40
2022-08-09T19:10:14.280Z,26.40
2022-08-09T19:12:55.097Z,26.20
2022-08-09T19:15:32.982Z,26.00
2022-08-09T19:18:02.048Z,25.90
2022-08-09T19:20:38.983Z,25.80
2022-08-09T19:23:08.082Z,25.80
2022-08-09T19:26:01.383Z,25.80
2022-08-09T19:28:28.795Z,25.70
2022-08-09T19:30:57.103Z,25.70
2022-08-09T19:33:25.313Z,25.70
2022-08-09T19:35:57.149Z,25.60
2022-08-09T19:38:28.094Z,25.70
2022-08-09T19:40:59.821Z,25.70
2022-08-09T19:44:00.667Z,25.50
2022-08-09T19:46:34.243Z,25.40
2022-08-09T19:50:06.556Z,25.30
2022-08-09T19:51:55.481Z,25.30
2022-08-09T19:54:24.961Z,25.30
2022-08-09T19:56:54.752Z,25.20
2022-08-09T19:59:57.677Z,25.30
2022-08-09T20:02:14.953Z,25.10
2022-08-09T20:05:09.749Z,25.00
2022-08-09T20:07:59.001Z,25.00
2022-08-09T20:10:28.011Z,24.90
2022-08-09T20:13:05.686Z,25.00
2022-08-09T20:16:32.900Z,24.90
2022-08-09T20:18:28.178Z,25.00
2022-08-09T20:20:56.678Z,24.80
2022-08-09T20:23:39.735Z,24.80
2022-08-09T20:26:09.735Z,24.90
2022-08-09T20:28:48.829Z,24.80
2022-08-09T20:31:18.432Z,24.90
2022-08-09T20:33:58.576Z,24.80
2022-08-09T20:36:30.456Z,24.90
2022-08-09T20:39:28.486Z,24.90
2022-08-09T20:41:49.098Z,24.90
2022-08-09T20:44:26.450Z,24.90
2022-08-09T20:46:55.426Z,24.80
2022-08-09T20:49:28.639Z,24.90
2022-08-09T20:51:56.970Z,24.80
2022-08-09T20:54:28.887Z,24.80
2022-08-09T20:56:57.652Z,24.70
2022-08-09T21:00:20.670Z,24.70
2022-08-09T21:02:18.417Z,24.70
2022-08-09T21:05:52.882Z,24.80
2022-08-09T21:07:40.126Z,24.60
2022-08-09T21:10:12.399Z,24.60
2022-08-09T21:15:35.037Z,24.60
2022-08-09T21:18:22.399Z,24.60
2022-08-09T21:20:54.408Z,24.50
2022-08-09T21:23:26.604Z,24.60
2022-08-09T21:26:12.541Z,24.60
2022-08-09T21:28:55.943Z,24.70
2022-08-09T21:31:48.563Z,24.70
2022-08-09T21:34:28.713Z,24.70
2022-08-09T21:36:58.120Z,24.70
2022-08-09T21:39:28.352Z,24.70
2022-08-09T21:42:11.180Z,24.70
2022-08-09T21:44:39.644Z,24.60
2022-08-09T21:47:17.363Z,24.50
2022-08-09T21:49:46.429Z,24.50
2022-08-09T21:52:20.672Z,24.40
2022-08-09T21:54:59.715Z,24.40
2022-08-09T21:57:39.437Z,24.40
2022-08-09T22:00:25.886Z,24.60
2022-08-09T22:02:59.235Z,24.40
2022-08-09T22:05:35.601Z,24.40
2022-08-09T22:08:07.002Z,24.30
2022-08-09T22:11:00.670Z,24.30
2022-08-09T22:13:34.466Z,24.30
2022-08-09T22:16:03.899Z,24.20
2022-08-09T22:18:33.449Z,24.20
2022-08-09T22:21:02.022Z,24.20
2022-08-09T22:23:58.682Z,24.20
2022-08-09T22:26:34.960Z,24.20
2022-08-09T22:29:07.445Z,24.10
2022-08-09T22:31:37.386Z,24.00
2022-08-09T22:34:09.850Z,24.00
2022-08-09T22:36:45.543Z,24.00
2022-08-09T22:39:46.645Z,24.00
2022-08-09T22:42:03.983Z,23.90
2022-08-09T22:44:45.602Z,23.90
2022-08-09T22:48:11.230Z,23.80
2022-08-09T22:50:03.605Z,23.80
2022-08-09T22:52:31.623Z,23.80
2022-08-09T22:55:00.164Z,23.80
2022-08-09T22:57:35.564Z,23.70
2022-08-09T23:00:06.768Z,23.60
2022-08-09T23:02:40.154Z,23.70
2022-08-09T23:05:14.683Z,23.50
2022-08-09T23:08:22.265Z,23.50
2022-08-09T23:10:46.286Z,23.50
2022-08-09T23:13:15.751Z,23.40
2022-08-09T23:16:02.703Z,23.40
2022-08-09T23:18:34.649Z,23.40
2022-08-09T23:21:04.071Z,23.30
2022-08-09T23:23:32.320Z,23.30
2022-08-09T23:26:00.445Z,23.40
2022-08-09T23:28:28.551Z,23.30
2022-08-09T23:30:56.512Z,23.20
2022-08-09T23:33:24.916Z,23.30
2022-08-09T23:36:07.018Z,23.20
2022-08-09T23:38:48.828Z,23.20
2022-08-09T23:41:28.518Z,23.10
2022-08-09T23:43:58.563Z,23.20
2022-08-09T23:46:26.776Z,23.10
2022-08-09T23:48:55.010Z,23.10
2022-08-09T23:51:23.008Z,23.00
2022-08-09T23:53:55.198Z,22.90
2022-08-09T23:56:53.588Z,22.90
2022-08-09T23:59:18.163Z,22.90
